Time;durP1;ratioP1;P1;durP2;ratioP2;P2;SDS_P1;SDS_P2;PMS_P1;PMS_P2;Temp;Humidity;BMP_temperature;BMP_pressure;BME280_temperature;BME280_humidity;BME280_pressure;Samples;Min_cycle;Max_cycle;Signal;HPM_P1;HPM_P2
2021/07/20 00:01:38;;;;;;;1.70;1.20;;;14.90;73.90;;;;;;5014744;28;20029;-73
2021/07/20 00:04:04;;;;;;;1.67;1.45;;;14.90;74.00;;;;;;5014312;28;20017;-71
2021/07/20 00:06:30;;;;;;;2.63;1.50;;;14.80;74.00;;;;;;5014597;28;20471;-72
2021/07/20 00:08:55;;;;;;;1.75;1.10;;;14.80;74.10;;;;;;5014772;28;20378;-72
2021/07/20 00:11:21;;;;;;;0.98;0.88;;;14.80;74.10;;;;;;5014543;28;20474;-72
2021/07/20 00:13:47;;;;;;;2.45;1.52;;;14.80;74.10;;;;;;5014666;28;20096;-71
2021/07/20 00:16:14;;;;;;;2.15;1.58;;;14.80;74.20;;;;;;5014507;28;20101;-72
2021/07/20 00:18:40;;;;;;;1.45;1.20;;;14.80;74.20;;;;;;5014096;28;20037;-71
2021/07/20 00:21:08;;;;;;;1.65;1.23;;;14.70;74.20;;;;;;5014268;28;20053;-72
2021/07/20 00:23:34;;;;;;;1.42;1.20;;;14.70;74.30;;;;;;5014264;28;20395;-70
2021/07/20 00:26:00;;;;;;;2.90;1.70;;;14.70;74.40;;;;;;5014282;28;20037;-72
2021/07/20 00:28:26;;;;;;;1.83;1.20;;;14.70;74.40;;;;;;5014279;28;20030;-71
2021/07/20 00:30:51;;;;;;;1.90;1.35;;;14.70;74.50;;;;;;5014345;28;20033;-71
2021/07/20 00:33:18;;;;;;;2.60;1.40;;;14.70;74.60;;;;;;5028863;28;20479;-71
2021/07/20 00:35:44;;;;;;;2.60;1.50;;;14.60;74.60;;;;;;5014285;28;20022;-72
2021/07/20 00:38:11;;;;;;;1.48;1.38;;;14.60;74.60;;;;;;5013436;28;20021;-71
2021/07/20 00:40:38;;;;;;;2.28;1.58;;;14.60;74.70;;;;;;5014026;28;20014;-73
2021/07/20 00:43:04;;;;;;;2.25;1.55;;;14.60;74.70;;;;;;5014094;28;20041;-72
2021/07/20 00:45:30;;;;;;;1.63;1.30;;;14.60;74.80;;;;;;5014020;28;20101;-71
2021/07/20 00:47:56;;;;;;;1.88;1.50;;;14.60;74.90;;;;;;5013480;28;20129;-70
2021/07/20 00:50:31;;;;;;;1.88;1.50;;;14.60;74.90;;;;;;5013873;28;20076;-71
2021/07/20 00:52:57;;;;;;;1.85;1.10;;;14.50;74.90;;;;;;5013946;28;20386;-71
2021/07/20 00:55:23;;;;;;;1.65;1.42;;;14.50;74.90;;;;;;5013855;28;20507;-71
2021/07/20 00:57:50;;;;;;;2.78;1.60;;;14.50;75.00;;;;;;5013934;28;20112;-71
2021/07/20 01:00:18;;;;;;;2.22;1.30;;;14.50;75.10;;;;;;5013812;28;20022;-72
2021/07/20 01:02:43;;;;;;;2.47;1.50;;;14.50;75.20;;;;;;5013143;28;20030;-71
2021/07/20 01:05:16;;;;;;;2.28;1.50;;;14.40;75.20;;;;;;5013790;28;20106;-72
2021/07/20 01:07:44;;;;;;;2.38;1.65;;;14.40;75.20;;;;;;5013674;28;20124;-71
2021/07/20 01:10:10;;;;;;;2.67;1.65;;;14.40;75.30;;;;;;5013808;28;20022;-71
2021/07/20 01:12:41;;;;;;;1.30;1.10;;;14.40;75.40;;;;;;5013592;28;20122;-73
2021/07/20 01:15:09;;;;;;;2.95;1.65;;;14.40;75.40;;;;;;5013572;28;20032;-72
2021/07/20 01:17:37;;;;;;;1.40;1.25;;;14.30;75.40;;;;;;5013112;28;20100;-73
2021/07/20 01:20:07;;;;;;;1.60;1.38;;;14.30;75.50;;;;;;5013590;28;20383;-72
2021/07/20 01:22:38;;;;;;;2.28;1.65;;;14.30;75.50;;;;;;5013351;28;20042;-71
2021/07/20 01:25:11;;;;;;;1.67;1.30;;;14.30;75.60;;;;;;5013409;28;20025;-71
2021/07/20 01:27:38;;;;;;;1.58;1.20;;;14.30;75.70;;;;;;5013274;28;20029;-71
2021/07/20 01:30:07;;;;;;;3.00;1.88;;;14.20;75.60;;;;;;5013421;28;20084;-70
2021/07/20 01:32:35;;;;;;;2.60;1.43;;;14.20;75.70;;;;;;5012874;28;20022;-71
2021/07/20 01:35:02;;;;;;;1.92;1.30;;;14.20;75.80;;;;;;5013417;28;20029;-72
2021/07/20 01:37:29;;;;;;;2.08;1.50;;;14.20;75.80;;;;;;5013394;28;20503;-71
2021/07/20 01:39:57;;;;;;;1.77;1.33;;;14.20;75.90;;;;;;5013266;28;20037;-72
2021/07/20 01:42:23;;;;;;;2.10;1.48;;;14.10;75.90;;;;;;5013398;28;20084;-71
2021/07/20 01:44:53;;;;;;;3.00;1.80;;;14.10;76.00;;;;;;5012724;28;20026;-74
2021/07/20 01:47:20;;;;;;;2.13;1.60;;;14.20;76.10;;;;;;5028541;28;20033;-72
2021/07/20 01:49:47;;;;;;;1.75;1.20;;;14.10;76.20;;;;;;5015142;28;20022;-71
2021/07/20 01:52:13;;;;;;;2.50;1.50;;;14.10;76.10;;;;;;5017192;28;20040;-71
2021/07/20 01:54:44;;;;;;;2.35;1.40;;;14.10;76.10;;;;;;5017143;28;20022;-71
2021/07/20 01:57:11;;;;;;;1.52;1.20;;;14.10;76.20;;;;;;5017236;28;20026;-72
2021/07/20 01:59:36;;;;;;;1.65;0.88;;;14.10;76.20;;;;;;5016524;28;20075;-71
2021/07/20 02:02:20;;;;;;;1.92;1.40;;;14.00;76.20;;;;;;5032113;28;20124;-72
2021/07/20 02:10:19;;;;;;;1.98;1.42;;;14.00;76.30;;;;;;5005936;28;20064;-72
2021/07/20 02:12:45;;;;;;;1.92;1.10;;;14.00;76.50;;;;;;5016808;28;20029;-72
2021/07/20 02:15:11;;;;;;;3.22;1.70;;;13.90;76.50;;;;;;5016189;28;20021;-71
2021/07/20 02:17:40;;;;;;;1.40;1.15;;;13.90;76.50;;;;;;5016755;28;20053;-72
2021/07/20 02:20:17;;;;;;;2.75;1.33;;;13.90;76.60;;;;;;5032075;28;20108;-73
2021/07/20 02:22:44;;;;;;;2.38;1.27;;;13.90;76.60;;;;;;5015260;28;20068;-72
2021/07/20 02:25:11;;;;;;;1.42;1.20;;;13.80;76.60;;;;;;5016639;28;20029;-72
2021/07/20 02:27:37;;;;;;;2.40;1.40;;;13.80;76.70;;;;;;5016459;28;20065;-72
2021/07/20 02:30:09;;;;;;;2.28;1.10;;;13.80;76.70;;;;;;5015998;28;20018;-71
2021/07/20 02:32:35;;;;;;;4.25;1.50;;;13.80;76.70;;;;;;5016476;28;20022;-72
2021/07/20 02:35:02;;;;;;;1.90;1.30;;;13.80;76.70;;;;;;5016416;28;20022;-72
2021/07/20 02:37:29;;;;;;;3.53;1.25;;;13.80;76.70;;;;;;5016386;28;20049;-72
2021/07/20 02:39:56;;;;;;;1.77;1.38;;;13.80;76.70;;;;;;5016331;28;20033;-72
2021/07/20 02:42:23;;;;;;;2.67;1.58;;;13.80;76.70;;;;;;5016266;28;20060;-71
2021/07/20 02:44:52;;;;;;;1.85;1.48;;;13.80;76.80;;;;;;5015775;28;20088;-71
2021/07/20 02:47:18;;;;;;;2.75;2.10;;;13.80;76.90;;;;;;5016136;28;20030;-71
2021/07/20 02:49:44;;;;;;;2.22;1.42;;;13.80;76.90;;;;;;5016091;28;20022;-72
2021/07/20 02:52:11;;;;;;;2.75;1.42;;;13.80;76.90;;;;;;5016108;28;20018;-71
2021/07/20 02:54:37;;;;;;;1.85;1.00;;;13.80;77.00;;;;;;5016185;28;20018;-73
2021/07/20 02:57:08;;;;;;;2.20;1.50;;;13.80;77.00;;;;;;5015987;28;20068;-72
2021/07/20 02:59:35;;;;;;;1.10;1.00;;;13.80;77.00;;;;;;5015498;28;20520;-72
2021/07/20 03:02:03;;;;;;;3.47;1.85;;;13.80;77.00;;;;;;5030420;28;20084;-70
2021/07/20 03:04:29;;;;;;;2.50;1.33;;;13.80;77.00;;;;;;5015846;28;20022;-72
2021/07/20 03:07:00;;;;;;;2.75;1.67;;;13.80;77.00;;;;;;5015767;28;20372;-71
2021/07/20 03:09:27;;;;;;;1.90;1.42;;;13.80;77.00;;;;;;5015814;28;20493;-71
2021/07/20 03:12:01;;;;;;;2.20;1.75;;;13.80;77.10;;;;;;5030434;28;20387;-71
2021/07/20 03:14:28;;;;;;;2.78;1.70;;;13.80;77.20;;;;;;5015596;28;20037;-71
2021/07/20 03:16:55;;;;;;;2.78;1.70;;;13.70;77.30;;;;;;5015690;28;20026;-71
2021/07/20 03:19:25;;;;;;;2.35;1.50;;;13.70;77.40;;;;;;5015535;28;20048;-70
2021/07/20 03:21:54;;;;;;;1.95;1.60;;;13.70;77.50;;;;;;5015599;28;20113;-71
2021/07/20 03:24:23;;;;;;;2.20;1.58;;;13.70;77.60;;;;;;5015472;28;20021;-71
2021/07/20 03:26:50;;;;;;;2.33;1.80;;;13.70;77.70;;;;;;5015043;28;20034;-71
2021/07/20 03:29:16;;;;;;;2.58;1.60;;;13.60;77.70;;;;;;5015286;28;20022;-71
2021/07/20 03:31:43;;;;;;;3.60;2.08;;;13.60;77.70;;;;;;5015375;28;20020;-71
2021/07/20 03:34:09;;;;;;;3.33;2.08;;;13.60;77.90;;;;;;5015223;28;20022;-71
2021/07/20 03:36:36;;;;;;;3.15;1.98;;;13.50;77.90;;;;;;5015342;28;20022;-72
2021/07/20 03:39:04;;;;;;;1.85;1.55;;;13.50;78.00;;;;;;5030433;28;20430;-71
2021/07/20 03:41:31;;;;;;;2.83;1.67;;;13.50;78.00;;;;;;5014751;28;20056;-72
2021/07/20 03:43:57;;;;;;;1.83;1.48;;;13.50;78.10;;;;;;5015106;28;20030;-71
2021/07/20 03:46:23;;;;;;;2.92;1.88;;;13.50;78.10;;;;;;5015050;28;20038;-71
2021/07/20 03:48:51;;;;;;;2.85;2.08;;;13.50;78.10;;;;;;5015021;28;20045;-71
2021/07/20 03:51:17;;;;;;;2.47;1.67;;;13.50;78.20;;;;;;5015067;28;20022;-71
2021/07/20 03:53:45;;;;;;;2.00;1.45;;;13.40;78.20;;;;;;5015014;28;20022;-71
2021/07/20 03:56:14;;;;;;;2.40;1.40;;;13.40;78.20;;;;;;5014376;28;20038;-71
2021/07/20 03:58:40;;;;;;;2.75;1.65;;;13.50;78.30;;;;;;5014934;28;20018;-71
2021/07/20 04:01:06;;;;;;;2.33;1.23;;;13.50;78.30;;;;;;5014802;28;20032;-71
2021/07/20 04:03:35;;;;;;;2.33;1.63;;;13.50;78.20;;;;;;5014820;28;20026;-71
2021/07/20 04:06:04;;;;;;;2.97;1.43;;;13.50;78.20;;;;;;5029903;28;20057;-72
2021/07/20 04:08:31;;;;;;;1.75;1.20;;;13.50;78.20;;;;;;5014646;28;20025;-71
2021/07/20 04:10:57;;;;;;;1.80;1.65;;;13.50;78.10;;;;;;5014225;28;20453;-71
2021/07/20 04:13:24;;;;;;;2.60;2.15;;;13.60;78.10;;;;;;5013791;28;20017;-71
2021/07/20 04:15:54;;;;;;;3.22;1.92;;;13.60;78.10;;;;;;5014472;28;20030;-71
2021/07/20 04:18:20;;;;;;;;;;;13.60;78.10;;;;;;5014948;28;20053;-72
2021/07/20 04:20:46;;;;;;;;;;;13.60;77.90;;;;;;5014897;28;19905;-70
2021/07/20 04:23:13;;;;;;;;;;;13.60;78.00;;;;;;5014592;28;19925;-71
2021/07/20 04:25:41;;;;;;;;;;;13.60;77.90;;;;;;5014382;28;19905;-71
2021/07/20 04:28:06;;;;;;;;;;;13.60;77.90;;;;;;5014711;28;19920;-72
2021/07/20 04:30:33;;;;;;;;;;;13.60;77.90;;;;;;5013290;28;19906;-71
2021/07/20 04:32:59;;;;;;;;;;;13.60;77.90;;;;;;5014673;28;20252;-72
2021/07/20 04:35:25;;;;;;;;;;;13.70;77.80;;;;;;5014641;28;19906;-71
2021/07/20 04:37:51;;;;;;;;;;;13.70;77.80;;;;;;5014493;28;19909;-71
2021/07/20 04:40:16;;;;;;;;;;;13.70;77.80;;;;;;5013968;28;19905;-71
2021/07/20 04:42:42;;;;;;;;;;;13.70;77.80;;;;;;5014377;28;19905;-71
2021/07/20 04:45:08;;;;;;;;;;;13.70;77.70;;;;;;5014486;28;19959;-71
2021/07/20 04:47:37;;;;;;;;;;;13.80;77.70;;;;;;5014235;28;19967;-71
2021/07/20 04:50:10;;;;;;;;;;;13.80;77.70;;;;;;5014291;28;19952;-71
2021/07/20 04:52:37;;;;;;;;;;;13.80;77.60;;;;;;5014162;28;19940;-72
2021/07/20 04:55:03;;;;;;;;;;;13.80;77.60;;;;;;5013795;28;19905;-70
2021/07/20 04:57:29;;;;;;;;;;;13.80;77.60;;;;;;5014211;28;19959;-70
2021/07/20 04:59:54;;;;;;;;;;;13.90;77.50;;;;;;5014172;28;20000;-71
2021/07/20 05:02:20;;;;;;;;;;;13.90;77.50;;;;;;5014115;28;19951;-71
2021/07/20 05:04:46;;;;;;;;;;;14.00;77.40;;;;;;5013981;28;19905;-72
2021/07/20 05:07:13;;;;;;;;;;;14.00;77.30;;;;;;5014056;28;20356;-71
2021/07/20 05:09:39;;;;;;;;;;;14.00;77.20;;;;;;5013619;28;19999;-72
2021/07/20 05:12:05;;;;;;;;;;;14.00;77.10;;;;;;5014115;28;19941;-72
2021/07/20 05:14:30;;;;;;;;;;;14.10;77.20;;;;;;5013769;28;19999;-71
2021/07/20 05:16:56;;;;;;;;;;;14.20;77.10;;;;;;5013931;28;20385;-71
2021/07/20 05:19:22;;;;;;;;;;;14.20;77.00;;;;;;5013887;28;20000;-72
2021/07/20 05:21:48;;;;;;;;;;;14.20;77.10;;;;;;5013856;28;19917;-71
2021/07/20 05:24:15;;;;;;;;;;;14.20;77.10;;;;;;5013006;28;19917;-70
2021/07/20 05:26:45;;;;;;;;;;;14.30;77.00;;;;;;5013685;28;19983;-72
2021/07/20 05:29:13;;;;;;;;;;;14.30;76.90;;;;;;5013782;28;19992;-72
2021/07/20 05:31:39;;;;;;;;;;;14.40;77.00;;;;;;5013717;28;20385;-71
2021/07/20 05:34:04;;;;;;;;;;;14.40;76.90;;;;;;5013739;28;19944;-71
2021/07/20 05:36:30;;;;;;;;;;;14.50;76.90;;;;;;5013726;28;19905;-72
2021/07/20 05:38:55;;;;;;;;;;;14.50;76.80;;;;;;5013338;28;19905;-71
2021/07/20 05:41:21;;;;;;;;;;;14.60;76.70;;;;;;5013669;28;20024;-70
2021/07/20 05:43:47;;;;;;;;;;;14.60;76.60;;;;;;5013725;28;19952;-71
2021/07/20 05:46:13;;;;;;;;;;;14.70;76.60;;;;;;5013740;28;19952;-71
2021/07/20 05:48:38;;;;;;;;;;;14.70;76.50;;;;;;5013562;28;19913;-71
2021/07/20 05:51:04;;;;;;;;;;;14.80;76.50;;;;;;5013606;28;19989;-70
2021/07/20 05:53:30;;;;;;;;;;;14.90;76.40;;;;;;5013335;28;19988;-71
2021/07/20 05:56:02;;;;;;;;;;;15.00;76.30;;;;;;5013611;28;20345;-71
2021/07/20 05:58:28;;;;;;;;;;;15.10;76.20;;;;;;5013665;28;19905;-72
2021/07/20 06:00:54;;;;;;;;;;;15.20;76.10;;;;;;5013509;28;19905;-72
2021/07/20 06:03:21;;;;;;;;;;;15.30;76.00;;;;;;5012112;28;19909;-71
2021/07/20 06:05:50;;;;;;;;;;;15.30;75.90;;;;;;5013483;28;19909;-71
2021/07/20 06:08:16;;;;;;;;;;;15.40;75.80;;;;;;5012126;28;19970;-71
2021/07/20 06:10:46;;;;;;;;;;;15.50;75.70;;;;;;5013407;28;19991;-70
2021/07/20 06:13:12;;;;;;;;;;;15.60;75.70;;;;;;5013600;28;19911;-71
2021/07/20 06:15:39;;;;;;;;;;;15.60;75.50;;;;;;5013402;28;19905;-71
2021/07/20 06:18:04;;;;;;;;;;;15.70;75.50;;;;;;5013384;28;20005;-72
2021/07/20 06:20:30;;;;;;;;;;;15.80;75.40;;;;;;5012993;28;19996;-71
2021/07/20 06:22:56;;;;;;;;;;;15.80;75.40;;;;;;5012938;28;19921;-71
2021/07/20 06:25:22;;;;;;;;;;;15.90;75.30;;;;;;5012111;28;19936;-72
2021/07/20 06:27:48;;;;;;;;;;;16.00;75.30;;;;;;5013269;28;19956;-70
2021/07/20 06:30:14;;;;;;;;;;;16.10;75.20;;;;;;5013312;28;19937;-71
2021/07/20 06:32:39;;;;;;;;;;;16.20;75.10;;;;;;5013264;28;19945;-71
2021/07/20 06:35:08;;;;;;;;;;;16.30;75.10;;;;;;5012892;28;20329;-72
2021/07/20 06:37:34;;;;;;;;;;;16.30;74.90;;;;;;5016080;28;19952;-72
2021/07/20 06:39:59;;;;;;;;;;;16.40;75.00;;;;;;5016835;28;19905;-71
2021/07/20 06:42:25;;;;;;;;;;;16.50;75.20;;;;;;5016722;28;19905;-72
2021/07/20 06:44:50;;;;;;;;;;;16.50;75.10;;;;;;5016510;28;19996;-72
2021/07/20 06:47:16;;;;;;;;;;;16.60;75.10;;;;;;5016562;28;19957;-71
2021/07/20 06:49:44;;;;;;;;;;;16.70;75.10;;;;;;5016026;28;19975;-70
2021/07/20 06:52:09;;;;;;;;;;;16.80;75.00;;;;;;5016540;28;19913;-71
2021/07/20 06:54:35;;;;;;;;;;;16.80;74.90;;;;;;5016489;28;19905;-72
2021/07/20 06:57:01;;;;;;;;;;;16.90;74.90;;;;;;5016423;28;19963;-71
2021/07/20 06:59:28;;;;;;;;;;;17.00;74.80;;;;;;5016388;28;19906;-71
2021/07/20 07:01:56;;;;;;;;;;;17.10;74.70;;;;;;5016273;28;19927;-72
2021/07/20 07:04:34;;;;;;;;;;;17.20;74.60;;;;;;5015892;28;19999;-71
2021/07/20 07:06:59;;;;;;;;;;;17.30;74.60;;;;;;5016052;28;19919;-72
2021/07/20 07:09:30;;;;;;;;;;;17.30;74.50;;;;;;5016143;28;19999;-72
2021/07/20 07:11:57;;;;;;;;;;;17.40;74.60;;;;;;5015983;28;20008;-72
2021/07/20 07:14:24;;;;;;;;;;;17.40;74.60;;;;;;5016150;28;19905;-71
2021/07/20 07:16:51;;;;;;;;;;;17.50;74.60;;;;;;5016070;28;20012;-73
2021/07/20 07:19:19;;;;;;;;;;;17.60;74.60;;;;;;5015273;28;19967;-72
2021/07/20 07:21:46;;;;;;;;;;;17.70;74.60;;;;;;5016057;28;19905;-72
2021/07/20 07:24:16;;;;;;;;;;;17.70;74.50;;;;;;5014560;28;20294;-71
2021/07/20 07:26:41;;;;;;;;;;;17.80;74.40;;;;;;5015850;28;19917;-72
2021/07/20 07:29:11;;;;;;;;;;;17.90;74.40;;;;;;5015681;28;19996;-72
2021/07/20 07:31:37;;;;;;;;;;;18.00;74.40;;;;;;5015885;28;19906;-72
2021/07/20 07:34:03;;;;;;;;;;;18.00;74.40;;;;;;5015267;28;19912;-72
2021/07/20 07:36:29;;;;;;;;;;;18.10;74.40;;;;;;5015895;28;19905;-72
2021/07/20 07:38:55;;;;;;;;;;;18.20;74.30;;;;;;5015654;28;20000;-72
2021/07/20 07:41:23;;;;;;;;;;;18.20;74.20;;;;;;5015532;28;19964;-72
2021/07/20 07:43:50;;;;;;;;;;;18.30;74.20;;;;;;5015402;28;20365;-72
2021/07/20 07:46:17;;;;;;;;;;;18.40;74.20;;;;;;5014171;28;19913;-71
2021/07/20 07:48:42;;;;;;;;;;;18.40;74.10;;;;;;5014897;28;19905;-72
2021/07/20 07:51:09;;;;;;;;;;;18.40;74.10;;;;;;5015421;28;19913;-72
2021/07/20 07:53:35;;;;;;;;;;;18.40;74.20;;;;;;5015439;28;19972;-72
2021/07/20 07:56:01;;;;;;;;;;;18.40;74.40;;;;;;5015166;28;19915;-72
2021/07/20 07:58:30;;;;;;;;;;;18.40;74.40;;;;;;5015337;28;19999;-71
2021/07/20 08:00:57;;;;;;;;;;;18.40;74.40;;;;;;5015434;28;19955;-73
2021/07/20 08:03:26;;;;;;;;;;;18.40;74.30;;;;;;5014813;28;19912;-71
2021/07/20 08:05:51;;;;;;;;;;;18.50;74.40;;;;;;5015131;28;19909;-73
2021/07/20 08:08:17;;;;;;;;;;;18.50;74.20;;;;;;5015024;28;19913;-71
2021/07/20 08:10:43;;;;;;;;;;;18.60;74.30;;;;;;5015047;28;20000;-72
2021/07/20 08:13:10;;;;;;;;;;;18.60;74.30;;;;;;5014951;28;19905;-72
2021/07/20 08:15:36;;;;;;;;;;;18.60;74.40;;;;;;5014997;28;20382;-75
2021/07/20 08:18:02;;;;;;;;;;;18.60;74.40;;;;;;5014355;28;19940;-71
2021/07/20 08:20:27;;;;;;;;;;;18.70;74.30;;;;;;5014924;28;19948;-71
2021/07/20 08:22:53;;;;;;;;;;;18.70;74.20;;;;;;5014703;28;19953;-72
2021/07/20 08:25:30;;;;;;;;;;;18.80;74.10;;;;;;5014742;28;20351;-71
2021/07/20 08:28:09;;;;;;;;;;;18.80;73.90;;;;;;5014793;28;20385;-73
2021/07/20 08:30:35;;;;;;;;;;;18.90;74.00;;;;;;5014660;28;19999;-70
2021/07/20 08:33:02;;;;;;;;;;;18.90;74.10;;;;;;5014102;28;20000;-73
2021/07/20 08:35:31;;;;;;;;;;;18.90;74.10;;;;;;5014572;28;19905;-72
2021/07/20 08:37:58;;;;;;;;;;;19.00;74.10;;;;;;5013243;28;19912;-72
2021/07/20 08:40:26;;;;;;;;;;;19.10;74.00;;;;;;5014546;28;19905;-73
2021/07/20 08:43:00;;;;;;;;;;;19.30;73.80;;;;;;5014822;28;19929;-71
2021/07/20 08:45:30;;;;;;;;;;;19.40;73.60;;;;;;5014109;28;19950;-72
2021/07/20 08:47:56;;;;;;;;;;;19.50;73.40;;;;;;5014203;28;19914;-72
2021/07/20 08:50:28;;;;;;;;;;;19.60;74.00;;;;;;5014388;28;19906;-73
2021/07/20 08:53:02;;;;;;;;;;;19.60;73.20;;;;;;5014404;28;19906;-72
2021/07/20 08:55:29;;;;;;;;;;;19.60;73.40;;;;;;5014214;28;20306;-73
2021/07/20 08:58:13;;;;;;;;;;;19.70;73.40;;;;;;5014091;28;19910;-72
2021/07/20 09:00:40;;;;;;;;;;;19.80;73.30;;;;;;5013286;28;19999;-72
2021/07/20 09:03:10;;;;;;;;;;;19.90;73.10;;;;;;5014070;28;19906;-73
2021/07/20 09:05:46;;;;;;;;;;;20.00;73.20;;;;;;5012823;28;19912;-73
2021/07/20 09:08:24;;;;;;;;;;;20.00;73.10;;;;;;5012672;28;20273;-73
2021/07/20 09:11:09;;;;;;;;;;;20.00;73.00;;;;;;5013942;28;19906;-72
2021/07/20 09:13:37;;;;;;;;;;;20.00;73.20;;;;;;5013942;28;19991;-72
2021/07/20 09:16:17;;;;;;;;;;;19.90;73.40;;;;;;5013565;28;19912;-72
2021/07/20 09:18:55;;;;;;;;;;;19.90;73.50;;;;;;5014019;28;20286;-73
2021/07/20 09:21:21;;;;;;;;;;;20.00;73.40;;;;;;5013768;28;19928;-73
2021/07/20 09:24:00;;;;;;;;;;;20.00;73.30;;;;;;5013771;28;19917;-74
2021/07/20 09:26:27;;;;;;;;;;;20.10;73.10;;;;;;5012579;28;19963;-72
2021/07/20 09:29:00;;;;;;;;;;;20.10;73.00;;;;;;5013468;28;19905;-71
2021/07/20 09:31:29;;;;;;;;;;;20.20;73.10;;;;;;5013979;28;19906;-73
2021/07/20 09:33:56;;;;;;;;;;;20.30;73.00;;;;;;5013783;28;19906;-71
2021/07/20 09:36:31;;;;;;;;;;;20.50;72.90;;;;;;5013695;28;19913;-71
2021/07/20 09:39:15;;;;;;;;;;;20.60;72.70;;;;;;5013851;28;19905;-72
2021/07/20 09:41:51;;;;;;;;;;;20.60;72.70;;;;;;5013768;28;19909;-73
2021/07/20 09:44:21;;;;;;;;;;;20.60;72.80;;;;;;5013377;28;19997;-72
2021/07/20 09:47:04;;;;;;;;;;;20.60;72.90;;;;;;5013661;28;19914;-71
2021/07/20 09:49:32;;;;;;;;;;;20.50;72.90;;;;;;5013579;28;19941;-72
2021/07/20 09:52:16;;;;;;;;;;;20.50;73.00;;;;;;5013844;28;20424;-71
2021/07/20 09:55:00;;;;;;;;;;;20.60;73.00;;;;;;5013467;28;19959;-72
2021/07/20 09:57:36;;;;;;;;;;;20.70;72.80;;;;;;5013643;28;19905;-72
2021/07/20 10:00:12;;;;;;;;;;;20.90;72.60;;;;;;5013122;28;19909;-73
2021/07/20 10:02:44;;;;;;;;;;;21.10;72.40;;;;;;5013639;28;19959;-74
2021/07/20 10:05:19;;;;;;;;;;;21.30;72.10;;;;;;5013568;28;19952;-73
2021/07/20 10:07:49;;;;;;;;;;;21.40;71.90;;;;;;5013397;28;20370;-72
2021/07/20 10:10:17;;;;;;;;;;;21.50;71.80;;;;;;5013562;28;19905;-73
2021/07/20 10:13:02;;;;;;;;;;;21.60;71.90;;;;;;5016283;28;19995;-73
2021/07/20 10:15:37;;;;;;;;;;;21.50;71.90;;;;;;5017304;28;20000;-72
2021/07/20 10:18:04;;;;;;;;;;;21.50;72.20;;;;;;5016296;28;20255;-72
2021/07/20 10:20:33;;;;;;;;;;;21.60;72.20;;;;;;5017197;28;19912;-72
2021/07/20 10:23:01;;;;;;;;;;;21.70;72.70;;;;;;5016923;28;19964;-71
2021/07/20 10:25:26;;;;;;;;;;;21.90;72.00;;;;;;5017085;28;20299;-73
2021/07/20 10:28:28;;;;;;;;;;;22.00;71.70;;;;;;5016227;28;20012;-72
2021/07/20 10:31:09;;;;;;;;;;;22.00;71.70;;;;;;4975796;28;19913;-74
2021/07/20 10:33:45;;;;;;;;;;;22.10;71.70;;;;;;4975950;28;19906;-72
2021/07/20 10:36:31;;;;;;;;;;;22.30;71.50;;;;;;4975750;28;19907;-73
2021/07/20 10:39:10;;;;;;;;;;;22.50;71.30;;;;;;4975533;28;20324;-72
2021/07/20 10:41:42;;;;;;;;;;;22.60;71.20;;;;;;4975164;28;19906;-73
2021/07/20 10:44:10;;;;;;;;;;;22.70;71.10;;;;;;4975695;28;19913;-73
2021/07/20 10:46:35;;;;;;;;;;;22.60;71.30;;;;;;4975047;28;19957;-73
2021/07/20 10:49:15;;;;;;;;;;;22.70;71.40;;;;;;4975428;28;19909;-73
2021/07/20 10:51:42;;;;;;;;;;;22.80;71.50;;;;;;4975221;28;19906;-74
2021/07/20 10:54:17;;;;;;;;;;;22.70;71.40;;;;;;4975304;28;19912;-75
2021/07/20 10:57:01;;;;;;;;;;;22.50;71.80;;;;;;4974796;28;19976;-72
2021/07/20 10:59:33;;;;;;;;;;;22.20;72.30;;;;;;4975179;28;20375;-75
2021/07/20 11:02:01;;;;;;;;;;;22.10;72.60;;;;;;4975094;28;19906;-74
2021/07/20 11:04:47;;;;;;;;;;;22.10;72.70;;;;;;4988799;28;19913;-74
2021/07/20 11:07:39;;;;;;;;;;;22.30;72.40;;;;;;5015810;28;19913;-72
2021/07/20 11:10:06;;;;;;;;;;;22.50;71.80;;;;;;5000222;28;20361;-76
2021/07/20 11:12:33;;;;;;;;;;;22.70;71.50;;;;;;5015509;28;20273;-73
2021/07/20 11:14:58;;;;;;;;;;;22.70;71.40;;;;;;5015914;28;19906;-74
2021/07/20 11:17:26;;;;;;;;;;;22.60;71.50;;;;;;5015852;28;19905;-73
2021/07/20 11:19:53;;;;;;;;;;;22.60;71.90;;;;;;5015681;28;19932;-73
2021/07/20 11:22:19;;;;;;;;;;;22.70;71.80;;;;;;5015015;28;19905;-72
2021/07/20 11:24:45;;;;;;;;;;;22.70;71.70;;;;;;5014506;28;20008;-72
2021/07/20 11:27:13;;;;;;;;;;;22.80;71.70;;;;;;5013828;28;19914;-73
2021/07/20 11:29:38;;;;;;;;;;;22.80;71.70;;;;;;5015642;28;19906;-72
2021/07/20 11:32:05;;;;;;;;;;;22.80;71.70;;;;;;5015653;28;19975;-73
2021/07/20 11:34:33;;;;;;;;;;;22.80;71.60;;;;;;5015345;28;20373;-73
2021/07/20 11:37:01;;;;;;;;;;;23.10;71.30;;;;;;5015529;28;19913;-72
2021/07/20 11:39:29;;;;;;;;;;;23.90;70.10;;;;;;5015091;28;19928;-72
2021/07/20 11:42:07;;;;;;;;;;;24.70;68.70;;;;;;5015433;28;20226;-73
2021/07/20 11:44:45;;;;;;;;;;;25.40;67.50;;;;;;5015388;28;19909;-73
2021/07/20 11:47:14;;;;;;;;;;;26.30;66.40;;;;;;5013883;28;19913;-74
2021/07/20 11:49:39;;;;;;;;;;;26.80;65.50;;;;;;5015338;28;19972;-74
2021/07/20 11:52:08;;;;;;;;;;;26.50;65.60;;;;;;5015249;28;20351;-74
2021/07/20 11:54:57;;;;;;;;;;;25.70;66.90;;;;;;5014701;28;19988;-72
2021/07/20 11:57:45;;;;;;;;;;;24.80;68.80;;;;;;5009431;28;19905;-73
2021/07/20 12:00:28;;;;;;;;;;;24.40;70.10;;;;;;5013702;28;20344;-73
2021/07/20 12:03:13;;;;;;;;;;;25.00;69.30;;;;;;5015054;28;19913;-72
2021/07/20 12:05:48;;;;;;;;;;;25.50;68.20;;;;;;5013559;28;19959;-73
2021/07/20 12:08:19;;;;;;;;;;;25.70;67.90;;;;;;5014839;28;19967;-72
2021/07/20 12:11:23;;;;;;;;;;;25.90;67.50;;;;;;5014840;28;19913;-72
2021/07/20 12:13:49;;;;;;;;;;;25.80;67.90;;;;;;4957537;28;19906;-73
2021/07/20 12:16:15;;;;;;;;;;;26.30;67.50;;;;;;4973536;28;19913;-74
2021/07/20 12:18:48;;;;;;;;;;;26.40;67.10;;;;;;4973704;28;19910;-74
2021/07/20 12:21:15;;;;;;;;;;;26.70;67.00;;;;;;4973489;28;19913;-72
2021/07/20 12:23:40;;;;;;;;;;;26.80;66.80;;;;;;4972808;28;20044;-72
2021/07/20 12:26:06;;;;;;;;;;;27.00;67.00;;;;;;4973497;28;20259;-74
2021/07/20 12:28:31;;;;;;;;;;;27.10;67.00;;;;;;4973350;28;20334;-73
2021/07/20 12:30:58;;;;;;;;;;;27.10;66.90;;;;;;4973146;28;19948;-73
2021/07/20 12:33:40;;;;;;;;;;;27.00;67.10;;;;;;5090961;28;19913;-73
2021/07/20 12:36:05;;;;;;;;;;;27.20;67.30;;;;;;5091117;28;19913;-72
2021/07/20 12:38:33;;;;;;;;;;;27.20;67.30;;;;;;5089125;28;19912;-73
2021/07/20 12:41:25;;;;;;;;;;;27.10;67.60;;;;;;5091041;28;19916;-72
2021/07/20 12:43:50;;;;;;;;;;;27.20;67.60;;;;;;5091424;28;19954;-72
2021/07/20 12:46:18;;;;;;;;;;;27.10;67.50;;;;;;5090619;28;19909;-73
2021/07/20 12:48:47;;;;;;;;;;;26.60;68.10;;;;;;5090668;28;20110;-72
2021/07/20 12:51:14;;;;;;;;;;;26.40;68.80;;;;;;5090411;28;19908;-71
2021/07/20 12:53:40;;;;;;;;;;;26.30;68.70;;;;;;5089999;28;19909;-70
2021/07/20 12:56:06;;;;;;;;;;;26.10;69.00;;;;;;5090415;28;19962;-71
2021/07/20 12:58:31;;;;;;;;;;;25.90;69.20;;;;;;5090546;28;19912;-72
2021/07/20 13:00:57;;;;;;;;;;;25.70;69.60;;;;;;5090541;28;19962;-72
2021/07/20 13:03:24;;;;;;;;;;;25.50;69.60;;;;;;5090666;28;19909;-72
2021/07/20 13:05:52;;;;;;;;;;;25.40;69.60;;;;;;5089155;28;20269;-71
2021/07/20 13:08:18;;;;;;;;;;;25.80;69.20;;;;;;5089980;28;19961;-71
2021/07/20 13:10:45;;;;;;;;;;;26.20;68.30;;;;;;5090211;28;19915;-70
2021/07/20 13:13:11;;;;;;;;;;;26.70;67.50;;;;;;5090159;28;20011;-72
2021/07/20 13:15:36;;;;;;;;;;;27.00;66.70;;;;;;5090223;28;19908;-72
2021/07/20 13:18:02;;;;;;;;;;;27.00;66.90;;;;;;5090118;28;20007;-71
2021/07/20 13:20:29;;;;;;;;;;;27.50;66.70;;;;;;5090089;28;20390;-72
2021/07/20 13:22:55;;;;;;;;;;;28.10;65.80;;;;;;5089592;28;19909;-72
2021/07/20 13:25:21;;;;;;;;;;;28.50;65.10;;;;;;5090084;28;19908;-71
2021/07/20 13:27:48;;;;;;;;;;;28.30;65.10;;;;;;5089779;28;19947;-71
2021/07/20 13:30:18;;;;;;;;;;;27.70;66.00;;;;;;5090051;28;19912;-70
2021/07/20 13:32:45;;;;;;;;;;;27.10;66.80;;;;;;5102769;28;19920;-70
2021/07/20 13:35:10;;;;;;;;;;;26.70;67.80;;;;;;5110223;28;19908;-72
2021/07/20 13:37:36;;;;;;;;;;;26.70;68.00;;;;;;5109597;28;19931;-72
2021/07/20 13:40:06;;;;;;;;;;;27.20;67.40;;;;;;5110028;28;19960;-72
2021/07/20 13:42:32;;;;;;;;;;;27.60;66.40;;;;;;5110160;28;19915;-73
2021/07/20 13:44:59;;;;;;;;;;;27.30;66.20;;;;;;5096709;28;19908;-72
2021/07/20 13:47:27;;;;;;;;;;;26.90;67.10;;;;;;5096466;28;19908;-72
2021/07/20 13:49:56;;;;;;;;;;;26.60;67.50;;;;;;5095756;28;19908;-73
2021/07/20 13:52:23;;;;;;;;;;;26.70;67.50;;;;;;5096286;28;19916;-72
2021/07/20 13:54:50;;;;;;;;;;;27.00;67.10;;;;;;5096147;28;19908;-73
2021/07/20 13:57:16;;;;;;;;;;;27.10;66.90;;;;;;5096259;28;19912;-72
2021/07/20 13:59:44;;;;;;;;;;;27.30;66.40;;;;;;5096157;28;20007;-72
2021/07/20 14:02:13;;;;;;;;;;;27.50;66.10;;;;;;5096103;28;20404;-72